Time;durP1;ratioP1;P1;durP2;ratioP2;P2;SDS_P1;SDS_P2;PMS_P1;PMS_P2;Temp;Humidity;BMP_temperature;BMP_pressure;BME280_temperature;BME280_humidity;BME280_pressure;Samples;Min_cycle;Max_cycle;Signal;HPM_P1;HPM_P2
2022/06/14 00:01:34;;;;;;;6.15;5.22;;;;;;;19.99;100.00;94435.63;5033574;28;20182;-61
2022/06/14 00:04:00;;;;;;;6.50;5.63;;;;;;;19.85;100.00;94426.22;5015440;28;20619;-62
2022/06/14 00:06:32;;;;;;;8.15;5.57;;;;;;;19.65;100.00;94433.09;5033146;28;20620;-62
2022/06/14 00:08:59;;;;;;;6.15;5.55;;;;;;;19.27;100.00;94421.47;5015448;28;20174;-60
2022/06/14 00:11:26;;;;;;;9.68;5.95;;;;;;;19.38;100.00;94428.72;5032859;28;20206;-58
2022/06/14 00:13:53;;;;;;;6.20;5.60;;;;;;;19.50;100.00;94434.16;5015215;28;20647;-60
2022/06/14 00:16:21;;;;;;;6.57;5.70;;;;;;;19.50;100.00;94432.38;5032864;28;20206;-62
2022/06/14 00:18:46;;;;;;;5.22;4.72;;;;;;;19.45;100.00;94437.31;5032924;28;20206;-63
2022/06/14 00:21:13;;;;;;;7.93;6.15;;;;;;;19.38;100.00;94443.41;5015139;28;20210;-62
2022/06/14 00:23:38;;;;;;;12.40;5.43;;;;;;;19.15;100.00;94441.81;5033065;28;20277;-60
2022/06/14 00:26:04;;;;;;;7.90;5.78;;;;;;;19.04;100.00;94437.19;5032859;28;20281;-62
2022/06/14 00:28:33;;;;;;;6.55;5.65;;;;;;;18.91;100.00;94431.13;5032713;28;20551;-62
2022/06/14 00:31:02;;;;;;;7.72;5.65;;;;;;;18.82;100.00;94443.34;5032871;28;20206;-63
2022/06/14 00:33:28;;;;;;;6.57;5.15;;;;;;;18.79;100.00;94432.59;5032683;28;20174;-64
2022/06/14 00:35:59;;;;;;;7.43;5.43;;;;;;;18.72;100.00;94442.88;5032863;28;20656;-62
2022/06/14 00:38:24;;;;;;;6.22;5.63;;;;;;;18.65;100.00;94436.84;5032712;28;20279;-61
2022/06/14 00:40:54;;;;;;;6.30;5.07;;;;;;;18.69;100.00;94422.63;5032441;28;20624;-62
2022/06/14 00:43:21;;;;;;;7.45;4.82;;;;;;;18.72;100.00;94432.56;5032354;28;20166;-62
2022/06/14 00:45:48;;;;;;;8.38;5.60;;;;;;;18.85;100.00;94442.97;5039972;22;20284;-62
2022/06/14 00:48:33;;;;;;;6.25;5.65;;;;;;;18.88;100.00;94446.97;5032484;28;20265;-63
2022/06/14 00:51:19;;;;;;;6.68;5.43;;;;;;;18.74;100.00;94437.53;5076014;23;20285;-62
2022/06/14 00:53:54;;;;;;;7.20;5.43;;;;;;;18.65;100.00;94441.19;5072460;28;20188;-62
2022/06/14 00:56:31;;;;;;;6.43;5.07;;;;;;;18.48;100.00;94440.66;5072090;28;20701;-61
2022/06/14 00:59:17;;;;;;;6.20;4.90;;;;;;;18.52;100.00;94449.59;5071850;28;20656;-62
2022/06/14 01:01:45;;;;;;;6.28;4.68;;;;;;;18.69;100.00;94455.28;5072138;28;20206;-61
2022/06/14 01:04:24;;;;;;;7.95;5.40;;;;;;;18.72;100.00;94449.78;5072116;28;20189;-62
2022/06/14 01:07:02;;;;;;;6.22;5.55;;;;;;;18.78;100.00;94452.44;5071820;28;20169;-62
2022/06/14 01:09:40;;;;;;;8.00;5.68;;;;;;;18.71;100.00;94448.97;5072252;28;20208;-62
2022/06/14 01:12:10;;;;;;;6.05;5.45;;;;;;;18.67;100.00;94439.22;5072104;28;20208;-60
2022/06/14 01:15:03;;;;;;;6.00;5.40;;;;;;;18.86;100.00;94446.34;5071707;28;20215;-60
2022/06/14 01:17:33;;;;;;;10.05;5.50;;;;;;;18.83;100.00;94444.13;5071747;28;20201;-62
2022/06/14 01:19:59;;;;;;;7.50;5.53;;;;;;;18.72;100.00;94434.34;5072212;28;20208;-62
2022/06/14 01:22:26;;;;;;;7.90;5.63;;;;;;;18.76;100.00;94441.50;5071854;28;20181;-62
2022/06/14 01:24:53;;;;;;;6.55;5.47;;;;;;;18.79;100.00;94430.81;5053932;28;20197;-61
2022/06/14 01:27:22;;;;;;;8.82;6.05;;;;;;;18.88;100.00;94434.06;5071775;28;20184;-61
2022/06/14 01:30:25;;;;;;;6.78;5.10;;;;;;;18.98;100.00;94444.88;5071996;28;20277;-62
2022/06/14 01:32:59;;;;;;;7.35;6.00;;;;;;;18.76;100.00;94431.22;5058792;28;20203;-62
2022/06/14 01:35:28;;;;;;;7.70;5.97;;;;;;;18.37;100.00;94426.44;5072074;28;20227;-62
2022/06/14 01:37:57;;;;;;;8.45;7.05;;;;;;;18.68;100.00;94425.38;5071514;28;20236;-61
2022/06/14 01:40:31;;;;;;;8.48;6.35;;;;;;;18.54;100.00;94421.91;5071467;28;20208;-62
2022/06/14 01:43:36;;;;;;;8.15;6.18;;;;;;;18.62;100.00;94433.84;5071490;28;20180;-62
2022/06/14 01:46:16;;;;;;;13.15;7.25;;;;;;;18.54;100.00;94428.81;5071456;28;20597;-61
2022/06/14 01:52:03;;;;;;;6.75;6.05;;;;;;;18.64;100.00;94434.47;5041387;28;20224;-62
2022/06/14 01:55:17;;;;;;;10.57;6.35;;;;;;;18.46;100.00;94398.03;5051724;28;20206;-62
2022/06/14 01:57:45;;;;;;;8.57;6.60;;;;;;;18.60;100.00;94438.38;5051539;28;20202;-62
2022/06/14 02:00:20;;;;;;;6.78;5.97;;;;;;;18.41;100.00;94448.28;5051672;28;20220;-61
2022/06/14 02:04:37;;;;;;;8.63;5.72;;;;;;;18.32;100.00;94446.00;5051523;28;20161;-61
2022/06/14 02:06:01;;;;;;;5.95;5.32;;;;;;;18.35;100.00;94450.75;5052318;28;20210;-59
2022/06/14 02:08:34;;;;;;;6.72;6.05;;;;;;;18.38;100.00;94455.56;5051255;28;20223;-61
2022/06/14 02:11:34;;;;;;;7.97;5.85;;;;;;;18.23;100.00;94450.44;5052405;28;20194;-62
2022/06/14 02:14:24;;;;;;;8.93;5.57;;;;;;;18.22;100.00;94464.28;5055274;28;20190;-61
2022/06/14 02:17:22;;;;;;;11.63;5.00;;;;;;;17.93;100.00;94472.06;5055410;28;20186;-62
2022/06/14 02:19:57;;;;;;;6.88;4.90;;;;;;;17.40;100.00;94454.28;5037799;28;20218;-62
2022/06/14 02:22:29;;;;;;;6.25;5.65;;;;;;;17.18;100.00;94447.44;5055190;28;20161;-62
2022/06/14 02:25:12;;;;;;;8.23;5.53;;;;;;;17.20;100.00;94451.44;5055301;28;20216;-62
2022/06/14 02:27:59;;;;;;;8.85;5.57;;;;;;;17.12;100.00;94458.41;5055178;28;20173;-63
2022/06/14 02:30:29;;;;;;;8.82;5.50;;;;;;;17.11;100.00;94461.94;5055348;28;20571;-63
2022/06/14 02:33:05;;;;;;;7.28;5.65;;;;;;;16.94;100.00;94463.03;5055103;28;20208;-62
2022/06/14 02:35:58;;;;;;;7.80;6.15;;;;;;;17.15;100.00;94460.63;5037999;28;20213;-64
2022/06/14 02:38:39;;;;;;;6.82;5.82;;;;;;;17.34;100.00;94467.81;5055972;28;20231;-62
2022/06/14 02:41:21;;;;;;;9.15;6.60;;;;;;;17.43;100.00;94469.34;5054809;28;20216;-60
2022/06/14 02:43:51;;;;;;;8.15;4.85;;;;;;;17.50;100.00;94471.06;5054962;28;20178;-62
2022/06/14 02:46:42;;;;;;;8.50;6.05;;;;;;;17.52;100.00;94479.41;5054821;28;20284;-62
2022/06/14 02:49:20;;;;;;;7.10;6.32;;;;;;;17.34;100.00;94467.81;5054593;28;20208;-60
2022/06/14 02:51:53;;;;;;;12.43;6.15;;;;;;;17.63;100.00;94490.22;5054834;28;20177;-63
2022/06/14 02:54:30;;;;;;;8.77;6.03;;;;;;;17.89;100.00;94496.53;5054745;28;20182;-60
2022/06/14 02:56:58;;;;;;;8.05;5.78;;;;;;;17.91;100.00;94492.00;5054693;28;20548;-61
2022/06/14 02:59:37;;;;;;;7.55;6.72;;;;;;;17.77;100.00;94503.09;5054627;28;20225;-61
2022/06/14 03:02:11;;;;;;;10.43;7.07;;;;;;;17.71;100.00;94503.81;5054203;28;20184;-61
2022/06/14 03:04:44;;;;;;;11.18;6.97;;;;;;;17.69;100.00;94504.94;5054505;28;20278;-59
2022/06/14 03:07:11;;;;;;;10.57;7.18;;;;;;;17.63;100.00;94503.88;5054273;28;20177;-62
2022/06/14 03:09:39;;;;;;;9.65;7.38;;;;;;;17.48;100.00;94497.88;5054502;28;20213;-62
2022/06/14 03:12:20;;;;;;;11.35;7.20;;;;;;;17.37;100.00;94495.75;5054097;28;20184;-61
2022/06/14 03:14:54;;;;;;;9.25;6.93;;;;;;;17.31;100.00;94507.50;5054369;28;20246;-61
2022/06/14 03:17:54;;;;;;;8.32;5.97;;;;;;;17.26;100.00;94509.00;5053950;28;20174;-62
2022/06/14 03:20:28;;;;;;;7.70;6.85;;;;;;;17.29;100.00;94506.13;5056819;22;20232;-62
2022/06/14 03:23:31;;;;;;;7.50;6.70;;;;;;;17.38;100.00;94513.56;5082120;22;20696;-62
2022/06/14 03:26:17;;;;;;;8.38;6.40;;;;;;;17.32;100.00;94508.31;5094140;28;20221;-62
2022/06/14 03:28:52;;;;;;;10.00;6.22;;;;;;;17.37;100.00;94501.69;5076124;28;20184;-62
2022/06/14 03:31:34;;;;;;;7.35;6.57;;;;;;;17.56;100.00;94500.41;5093984;28;20238;-63
2022/06/14 03:34:11;;;;;;;13.10;6.63;;;;;;;17.32;100.00;94455.16;5093860;28;20180;-62
2022/06/14 03:36:43;;;;;;;11.60;7.78;;;;;;;17.59;100.00;94495.72;5093992;28;20168;-62
2022/06/14 03:39:12;;;;;;;7.25;6.53;;;;;;;17.70;100.00;94493.69;5093916;28;20216;-62
2022/06/14 03:41:43;;;;;;;7.90;6.38;;;;;;;17.82;100.00;94495.63;5094048;28;20176;-63
2022/06/14 03:44:09;;;;;;;9.52;6.47;;;;;;;17.97;100.00;94501.59;5093747;28;20168;-60
2022/06/14 03:46:39;;;;;;;10.80;7.47;;;;;;;17.99;100.00;94503.97;5108595;22;20224;-60
2022/06/14 03:49:25;;;;;;;7.50;6.57;;;;;;;18.03;100.00;94502.66;5074898;28;20192;-60
2022/06/14 03:52:00;;;;;;;12.20;7.82;;;;;;;18.12;100.00;94507.50;5093877;28;20599;-61
2022/06/14 03:54:53;;;;;;;9.88;7.15;;;;;;;18.14;100.00;94510.69;5093499;28;20203;-63
2022/06/14 03:57:18;;;;;;;11.50;7.35;;;;;;;18.06;100.00;94507.44;5099890;22;20571;-62
2022/06/14 04:00:06;;;;;;;9.32;8.20;;;;;;;18.03;100.00;94505.22;5055000;28;20208;-62
2022/06/14 04:02:53;;;;;;;10.30;7.95;;;;;;;18.42;100.00;94503.91;5073472;28;20535;-60
2022/06/14 04:05:54;;;;;;;9.52;7.18;;;;;;;19.45;100.00;94512.09;5073130;28;20200;-59
2022/06/14 04:08:35;;;;;;;11.70;8.48;;;;;;;19.60;100.00;94515.38;5040768;28;20197;-63
2022/06/14 04:11:15;;;;;;;14.75;7.97;;;;;;;19.28;100.00;94537.31;5073149;28;20293;-63
2022/06/14 04:13:42;;;;;;;9.50;8.45;;;;;;;19.27;100.00;94532.31;5072898;28;20204;-63
2022/06/14 04:16:31;;;;;;;11.07;8.77;;;;;;;19.08;100.00;94541.50;5072693;28;20204;-63
2022/06/14 04:19:50;;;;;;;6.32;5.45;;;;;;;19.27;100.00;94520.25;5034825;28;20693;-64
2022/06/14 04:22:33;;;;;;;10.68;9.27;;;;;;;19.61;100.00;94531.66;5073016;28;20180;-64
2022/06/14 04:25:10;;;;;;;11.07;8.88;;;;;;;19.39;100.00;94528.31;5072790;28;20209;-62
2022/06/14 04:27:52;;;;;;;12.68;8.90;;;;;;;19.28;100.00;94541.66;5073001;28;20189;-64
2022/06/14 04:30:25;;;;;;;12.27;9.43;;;;;;;18.80;100.00;94526.94;5072901;28;20203;-64
2022/06/14 04:32:58;;;;;;;14.85;9.23;;;;;;;18.85;100.00;94534.91;5073127;28;20184;-60
2022/06/14 04:35:35;;;;;;;13.52;9.73;;;;;;;18.53;100.00;94525.03;5072310;28;20196;-64
2022/06/14 04:38:30;;;;;;;11.40;9.18;;;;;;;18.56;100.00;94545.28;5072926;28;20673;-64
2022/06/14 04:41:09;;;;;;;10.55;9.02;;;;;;;18.79;100.00;94545.94;5052997;28;20246;-64
2022/06/14 04:43:49;;;;;;;9.75;8.75;;;;;;;19.05;100.00;94551.34;5073002;28;20177;-64
2022/06/14 04:46:34;;;;;;;11.52;9.27;;;;;;;18.87;100.00;94550.97;5072300;28;20228;-64
2022/06/14 04:49:42;;;;;;;11.35;9.98;;;;;;;19.15;100.00;94557.00;5053721;28;20773;-64
2022/06/14 04:52:12;;;;;;;13.48;9.07;;;;;;;19.00;100.00;94554.50;5072148;28;20192;-64
2022/06/14 04:54:46;;;;;;;12.63;8.25;;;;;;;19.07;100.00;94563.09;5071738;28;20232;-64
2022/06/14 04:57:23;;;;;;;14.05;8.38;;;;;;;19.00;100.00;94582.03;5072210;28;20635;-63
2022/06/14 04:59:57;;;;;;;13.40;7.70;;;;;;;18.83;100.00;94560.84;5054170;28;20204;-63
2022/06/14 05:02:28;;;;;;;15.80;8.25;;;;;;;18.85;100.00;94561.47;5072454;28;20193;-62
2022/06/14 05:05:07;;;;;;;11.18;7.75;;;;;;;19.04;100.00;94580.69;5072100;28;20197;-60
2022/06/14 05:08:02;;;;;;;9.20;8.18;;;;;;;18.92;100.00;94567.50;5072279;28;20711;-60
2022/06/14 05:10:34;;;;;;;12.05;8.23;;;;;;;18.95;100.00;94574.03;5053966;28;20208;-65
2022/06/14 05:13:12;;;;;;;12.25;8.70;;;;;;;19.11;100.00;94566.09;5072319;28;20212;-64
2022/06/14 05:15:57;;;;;;;13.02;8.45;;;;;;;19.10;100.00;94561.94;5071898;28;20188;-62
2022/06/14 05:18:34;;;;;;;17.35;8.90;;;;;;;18.91;100.00;94565.09;5053954;28;20701;-63
2022/06/14 05:21:36;;;;;;;14.32;10.23;;;;;;;19.07;100.00;94557.13;5072047;28;20201;-63
2022/06/14 05:24:04;;;;;;;15.23;9.57;;;;;;;19.21;100.00;94551.91;4987991;28;20520;-62
2022/06/14 05:26:29;;;;;;;13.98;9.30;;;;;;;19.41;100.00;94562.44;5071590;28;20173;-62
2022/06/14 05:29:21;;;;;;;13.60;9.65;;;;;;;19.52;100.00;94563.72;5071689;28;20264;-63
2022/06/14 05:31:46;;;;;;;15.82;9.65;;;;;;;19.60;100.00;94568.72;5072156;28;20273;-60
2022/06/14 05:34:34;;;;;;;17.50;10.95;;;;;;;19.55;100.00;94574.47;5053489;28;20637;-63
2022/06/14 05:37:14;;;;;;;16.60;12.27;;;;;;;19.46;100.00;94564.44;5071711;28;20192;-63
2022/06/14 05:39:51;;;;;;;20.33;12.65;;;;;;;19.57;100.00;94577.66;5071944;28;20291;-63
2022/06/14 05:42:25;;;;;;;18.95;12.90;;;;;;;19.52;100.00;94572.25;5071909;28;20184;-63
2022/06/14 05:44:57;;;;;;;18.08;12.90;;;;;;;19.75;100.00;94588.31;5071843;28;20350;-60
2022/06/14 05:47:50;;;;;;;18.00;13.07;;;;;;;19.98;100.00;94591.44;5077787;28;20325;-60
2022/06/14 05:50:33;;;;;;;17.52;11.65;;;;;;;19.75;100.00;94570.25;5075109;28;20265;-64
2022/06/14 05:53:07;;;;;;;24.58;12.57;;;;;;;19.89;100.00;94592.59;5078589;28;20177;-62
2022/06/14 05:55:32;;;;;;;19.92;12.90;;;;;;;19.93;100.00;94598.16;5078260;28;20227;-63
2022/06/14 05:58:08;;;;;;;14.20;9.70;;;;;;;19.75;100.00;94605.56;5077191;28;20630;-63
2022/06/14 06:00:40;;;;;;;15.88;9.38;;;;;;;19.67;100.00;94603.94;5077743;28;20634;-61
2022/06/14 06:03:35;;;;;;;10.23;6.45;;;;;;;19.58;100.00;94612.75;5078435;28;20197;-65
2022/06/14 06:06:25;;;;;;;13.93;6.70;;;;;;;19.82;100.00;94614.94;5068630;28;20212;-65
2022/06/14 06:08:58;;;;;;;7.82;6.00;;;;;;;20.17;100.00;94615.81;5077971;28;20169;-65
2022/06/14 06:11:53;;;;;;;9.98;5.80;;;;;;;20.28;100.00;94602.38;5078248;28;20192;-63
2022/06/14 06:14:23;;;;;;;9.35;6.30;;;;;;;20.42;100.00;94624.69;5075648;28;20192;-65
2022/06/14 06:19:27;;;;;;;9.27;5.82;;;;;;;20.63;100.00;94616.88;5078178;28;20298;-65
2022/06/14 06:22:00;;;;;;;7.95;5.53;;;;;;;20.75;100.00;94607.59;5078211;28;20193;-66
2022/06/14 06:24:25;;;;;;;7.32;6.07;;;;;;;20.83;100.00;94616.97;5060025;28;20201;-65
2022/06/14 06:26:59;;;;;;;6.40;5.63;;;;;;;20.69;100.00;94604.97;5104497;22;20232;-64
2022/06/14 06:29:39;;;;;;;9.43;6.45;;;;;;;20.60;100.00;94639.72;5097688;28;20196;-66
2022/06/14 06:32:06;;;;;;;7.90;6.18;;;;;;;20.65;100.00;94632.97;5098073;28;20176;-65
2022/06/14 06:34:33;;;;;;;9.80;6.25;;;;;;;20.77;100.00;94623.69;5098250;28;20196;-67
2022/06/14 06:37:17;;;;;;;6.38;5.78;;;;;;;20.73;100.00;94632.81;5097890;28;20168;-67
2022/06/14 06:40:04;;;;;;;8.30;5.63;;;;;;;20.24;100.00;94623.63;5097908;28;20211;-65
2022/06/14 06:42:52;;;;;;;11.55;5.88;;;;;;;20.09;100.00;94621.91;5086869;22;20239;-60
2022/06/14 06:45:27;;;;;;;11.77;6.90;;;;;;;19.95;100.00;94615.06;5097327;28;20216;-59
2022/06/14 06:48:23;;;;;;;8.05;6.35;;;;;;;19.94;100.00;94615.22;5098063;28;20164;-59
2022/06/14 06:50:52;;;;;;;9.88;6.47;;;;;;;19.89;100.00;94610.66;5093145;28;20220;-61
2022/06/14 06:53:21;;;;;;;9.88;6.93;;;;;;;19.89;100.00;94615.00;5097834;28;20191;-60
2022/06/14 06:56:01;;;;;;;8.00;6.05;;;;;;;19.86;100.00;94620.53;5098248;28;20203;-60
2022/06/14 06:58:47;;;;;;;6.95;6.25;;;;;;;19.86;100.00;94611.00;5094828;28;20696;-60
2022/06/14 07:01:22;;;;;;;9.85;6.10;;;;;;;19.95;100.00;94622.81;5094637;28;20231;-59
2022/06/14 07:03:54;;;;;;;7.53;6.75;;;;;;;19.89;100.00;94620.97;5094460;28;20164;-61
2022/06/14 07:06:28;;;;;;;6.95;5.93;;;;;;;19.79;100.00;94635.19;5094984;28;20669;-60
2022/06/14 07:08:59;;;;;;;8.25;6.05;;;;;;;19.83;100.00;94652.69;5094530;28;20692;-62
2022/06/14 07:11:34;;;;;;;9.05;5.60;;;;;;;19.81;100.00;94646.09;5094921;28;20200;-61
2022/06/14 07:14:09;;;;;;;8.50;6.85;;;;;;;19.86;100.00;94636.00;5094573;28;20172;-59
2022/06/14 07:16:40;;;;;;;7.22;6.00;;;;;;;19.82;100.00;94643.34;5095002;28;20183;-61
2022/06/14 07:19:15;;;;;;;8.20;6.53;;;;;;;19.87;100.00;94640.19;5094157;28;20210;-63
2022/06/14 07:21:45;;;;;;;7.57;6.10;;;;;;;19.83;100.00;94637.19;5094750;28;20180;-65
2022/06/14 07:24:17;;;;;;;7.70;6.90;;;;;;;19.86;100.00;94636.81;5076008;28;20188;-62
2022/06/14 07:27:07;;;;;;;10.10;6.88;;;;;;;19.95;100.00;94640.88;5094638;28;20177;-61
2022/06/14 07:29:41;;;;;;;7.25;6.55;;;;;;;20.01;100.00;94641.91;5094105;28;20278;-64
2022/06/14 07:32:16;;;;;;;9.02;7.05;;;;;;;20.09;100.00;94639.97;5075833;28;20563;-59
2022/06/14 07:34:43;;;;;;;7.63;6.45;;;;;;;20.17;100.00;94640.81;5075802;28;20590;-60
2022/06/14 07:37:22;;;;;;;11.35;6.32;;;;;;;20.20;100.00;94656.75;5075287;28;20176;-60
2022/06/14 07:40:14;;;;;;;8.60;6.85;;;;;;;20.29;100.00;94660.00;5094149;28;20239;-64
2022/06/14 07:42:39;;;;;;;10.77;6.80;;;;;;;20.40;100.00;94651.72;5093783;28;20240;-60
2022/06/14 07:45:22;;;;;;;9.82;5.82;;;;;;;20.58;100.00;94662.38;5093975;28;20201;-63
2022/06/14 07:48:00;;;;;;;8.38;6.80;;;;;;;20.63;100.00;94673.72;5094053;28;20240;-60
2022/06/14 07:50:41;;;;;;;9.57;6.43;;;;;;;20.62;100.00;94677.31;5075560;28;20215;-62
2022/06/14 07:53:18;;;;;;;9.60;5.85;;;;;;;20.68;100.00;94691.25;5092848;28;20188;-64
2022/06/14 07:55:46;;;;;;;8.88;6.85;;;;;;;20.75;100.00;94658.47;5092351;28;20204;-64
2022/06/14 07:58:23;;;;;;;9.68;7.55;;;;;;;20.84;100.00;94685.75;5093373;28;20228;-63
2022/06/14 08:01:09;;;;;;;8.48;6.45;;;;;;;20.81;100.00;94681.75;5075077;28;20208;-68
2022/06/14 08:03:43;;;;;;;12.43;7.43;;;;;;;20.93;100.00;94672.47;5093619;28;20206;-63
2022/06/14 08:06:16;;;;;;;7.93;6.05;;;;;;;21.01;100.00;94681.06;5093728;28;20239;-59
2022/06/14 08:08:44;;;;;;;10.02;6.72;;;;;;;20.98;100.00;94677.06;5074850;28;20557;-63
2022/06/14 08:11:35;;;;;;;6.55;5.70;;;;;;;21.11;100.00;94682.31;5093684;28;20210;-62
2022/06/14 08:14:06;;;;;;;7.88;6.22;;;;;;;21.24;100.00;94676.41;5093519;28;20187;-62
2022/06/14 08:16:33;;;;;;;8.02;6.38;;;;;;;21.33;100.00;94681.19;5094013;28;20199;-62
2022/06/14 08:19:07;;;;;;;7.00;5.60;;;;;;;21.58;100.00;94687.44;5093175;28;20703;-59
2022/06/14 08:21:40;;;;;;;7.15;6.07;;;;;;;21.70;100.00;94703.19;5093656;28;20176;-59
2022/06/14 08:24:11;;;;;;;8.27;5.75;;;;;;;21.81;100.00;94688.88;5093086;28;20595;-62
2022/06/14 08:27:03;;;;;;;10.70;5.93;;;;;;;21.99;100.00;94715.00;5093555;28;20268;-63
2022/06/14 08:29:42;;;;;;;8.45;5.65;;;;;;;22.10;100.00;94683.38;5093029;28;20776;-60
2022/06/14 08:32:27;;;;;;;9.05;6.35;;;;;;;22.26;100.00;94675.19;5092821;28;20168;-60
2022/06/14 08:35:04;;;;;;;7.90;6.43;;;;;;;22.32;100.00;94700.28;5092768;28;20216;-60
2022/06/14 08:37:37;;;;;;;7.05;5.57;;;;;;;22.45;100.00;94676.94;5099847;22;20289;-61
2022/06/14 08:40:50;;;;;;;6.80;5.30;;;;;;;22.44;100.00;94704.66;5092844;28;20208;-60
2022/06/14 08:43:23;;;;;;;7.78;5.65;;;;;;;22.45;100.00;94689.91;5065213;28;20567;-60
2022/06/14 08:46:26;;;;;;;12.40;5.18;;;;;;;22.45;100.00;94746.91;5092942;28;20200;-59
2022/06/14 08:49:19;;;;;;;5.53;4.63;;;;;;;22.42;100.00;94724.00;5092682;28;20533;-61
2022/06/14 08:52:22;;;;;;;7.03;4.70;;;;;;;22.64;100.00;94766.88;5092655;28;20173;-62
2022/06/14 08:55:20;;;;;;;4.60;4.10;;;;;;;22.79;100.00;94782.19;5074034;28;20268;-61
2022/06/14 08:57:52;;;;;;;8.63;4.45;;;;;;;22.96;100.00;94734.91;5063420;28;20208;-61
2022/06/14 09:00:23;;;;;;;8.25;4.45;;;;;;;23.04;100.00;94713.94;5092623;28;20208;-58
2022/06/14 09:03:26;;;;;;;7.28;4.82;;;;;;;23.19;100.00;94719.66;5092363;28;20172;-59
2022/06/14 09:06:18;;;;;;;10.90;4.55;;;;;;;23.12;100.00;94731.88;5092547;28;20215;-58
2022/06/14 09:09:28;;;;;;;6.28;4.18;;;;;;;22.96;100.00;94750.47;5092124;28;20176;-59
2022/06/14 09:12:03;;;;;;;7.43;4.57;;;;;;;22.95;100.00;94715.16;5030037;28;20277;-60
2022/06/14 09:14:52;;;;;;;5.00;4.57;;;;;;;23.17;100.00;94666.38;5029848;28;20196;-61
2022/06/14 09:17:56;;;;;;;5.78;4.70;;;;;;;23.17;100.00;94690.53;5075618;28;20662;-61
2022/06/14 09:20:27;;;;;;;4.68;4.28;;;;;;;23.20;100.00;94703.13;5059909;28;20227;-61
2022/06/14 09:23:10;;;;;;;6.68;5.18;;;;;;;22.95;100.00;94693.59;5091785;28;20184;-60
2022/06/14 09:26:13;;;;;;;6.32;4.65;;;;;;;22.87;100.00;94692.03;5092327;28;20260;-60
2022/06/14 09:29:03;;;;;;;5.95;4.30;;;;;;;22.70;100.00;94690.91;5091896;28;20670;-60
2022/06/14 09:31:42;;;;;;;8.43;4.75;;;;;;;22.71;100.00;94695.06;5092320;28;20329;-59
2022/06/14 09:34:23;;;;;;;5.80;4.20;;;;;;;22.66;100.00;94692.31;5092000;28;20684;-59
2022/06/14 09:36:55;;;;;;;10.90;4.60;;;;;;;22.70;100.00;94674.53;5092518;28;20199;-60
2022/06/14 09:39:49;;;;;;;8.15;4.07;;;;;;;22.53;100.00;94752.69;5091887;28;20215;-60
2022/06/14 09:42:23;;;;;;;4.70;3.88;;;;;;;22.48;100.00;94718.03;5065369;28;20195;-60
2022/06/14 09:45:04;;;;;;;8.00;4.25;;;;;;;22.49;100.00;94706.63;5092000;28;20249;-60
2022/06/14 09:47:56;;;;;;;11.40;4.50;;;;;;;22.56;100.00;94691.91;5091667;28;20168;-61
2022/06/14 09:50:53;;;;;;;5.88;4.57;;;;;;;22.68;100.00;94646.25;5091801;28;20201;-61
2022/06/14 09:54:02;;;;;;;5.63;4.40;;;;;;;22.70;100.00;94635.66;5091670;28;20223;-61
2022/06/14 09:56:33;;;;;;;5.93;4.10;;;;;;;22.64;100.00;94626.09;5092426;28;20176;-62
2022/06/14 09:59:35;;;;;;;5.05;4.55;;;;;;;22.62;100.00;94621.13;5091464;28;20770;-61
2022/06/14 10:02:06;;;;;;;6.68;5.10;;;;;;;22.47;100.00;94654.22;5068457;28;20198;-60
2022/06/14 10:05:10;;;;;;;6.97;4.60;;;;;;;22.54;100.00;94623.91;5091614;28;20196;-61
2022/06/14 10:07:47;;;;;;;7.70;5.05;;;;;;;22.37;100.00;94630.53;5029247;28;20190;-61
2022/06/14 10:10:50;;;;;;;7.40;5.25;;;;;;;22.36;100.00;94631.53;5084762;28;20275;-61
2022/06/14 10:13:15;;;;;;;7.95;3.60;;;;;;;22.11;100.00;94724.59;5091429;28;20215;-60
2022/06/14 10:16:13;;;;;;;4.10;3.70;;;;;;;21.78;100.00;94780.66;5091640;28;20232;-59
2022/06/14 10:18:58;;;;;;;8.20;3.28;;;;;;;21.80;100.00;94759.75;5091327;28;20665;-59
2022/06/14 10:22:08;;;;;;;4.88;3.22;;;;;;;21.72;100.00;94706.38;5091854;28;20212;-60
2022/06/14 10:24:43;;;;;;;4.60;2.92;;;;;;;21.77;100.00;94639.31;5070432;28;20220;-60
2022/06/14 10:30:36;;;;;;;6.70;3.53;;;;;;;21.65;100.00;94677.88;5091867;28;20269;-63
2022/06/14 10:33:20;;;;;;;4.50;2.85;;;;;;;20.91;100.00;94621.97;5094353;28;20192;-63
2022/06/14 10:36:19;;;;;;;4.30;3.28;;;;;;;20.18;100.00;94595.94;5095185;28;20651;-60
2022/06/14 10:38:44;;;;;;;6.30;3.38;;;;;;;19.57;100.00;94572.50;5076924;28;20192;-61
2022/06/14 10:41:34;;;;;;;4.45;3.22;;;;;;;19.31;100.00;94584.34;5095293;28;20211;-60
2022/06/14 10:44:23;;;;;;;7.10;3.95;;;;;;;19.20;100.00;94604.47;5094669;28;20234;-60
2022/06/14 10:47:28;;;;;;;6.68;3.92;;;;;;;19.09;100.00;94629.91;5094682;28;20223;-59
2022/06/14 10:50:12;;;;;;;3.83;3.28;;;;;;;19.05;100.00;94615.78;5094948;28;20230;-60
2022/06/14 10:52:46;;;;;;;5.00;3.55;;;;;;;19.01;100.00;94617.94;5094847;28;20715;-60
2022/06/14 10:55:22;;;;;;;5.93;3.42;;;;;;;18.97;100.00;94628.78;5094924;28;20200;-62
2022/06/14 10:57:55;;;;;;;3.85;3.42;;;;;;;19.03;100.00;94615.16;5094841;28;20202;-62
2022/06/14 11:00:50;;;;;;;5.53;3.58;;;;;;;19.02;100.00;94626.47;5076925;28;20260;-61
2022/06/14 11:03:34;;;;;;;6.07;4.28;;;;;;;18.95;100.00;94626.38;5023369;28;20197;-60
2022/06/14 11:06:02;;;;;;;5.82;3.70;;;;;;;19.05;100.00;94636.38;5095078;28;20211;-61
2022/06/14 11:08:36;;;;;;;5.75;4.85;;;;;;;19.05;100.00;94621.75;5094558;28;20566;-61
2022/06/14 11:11:35;;;;;;;4.43;3.90;;;;;;;19.11;100.00;94628.75;5094851;28;20273;-61
2022/06/14 11:14:07;;;;;;;3.67;3.25;;;;;;;19.11;100.00;94641.63;5094547;28;20168;-64
2022/06/14 11:16:57;;;;;;;4.03;3.00;;;;;;;19.04;100.00;94663.16;5076678;28;20188;-60
2022/06/14 11:19:49;;;;;;;5.05;3.42;;;;;;;18.96;100.00;94640.88;5094175;28;20219;-61
2022/06/14 11:22:50;;;;;;;5.00;3.50;;;;;;;19.06;100.00;94643.16;5094451;28;20677;-59
2022/06/14 11:25:44;;;;;;;3.75;3.30;;;;;;;19.17;100.00;94612.53;5094785;28;20211;-63
2022/06/14 11:28:18;;;;;;;4.07;3.40;;;;;;;19.28;100.00;94648.16;5094214;28;20173;-62
2022/06/14 11:30:56;;;;;;;3.60;2.95;;;;;;;19.22;100.00;94663.56;5094649;28;20631;-62
2022/06/14 11:33:34;;;;;;;3.80;3.30;;;;;;;19.40;100.00;94650.28;5076857;28;20179;-61
2022/06/14 11:36:23;;;;;;;4.10;3.05;;;;;;;19.27;100.00;94617.38;5094624;28;20212;-61
2022/06/14 11:39:07;;;;;;;4.28;2.95;;;;;;;19.33;100.00;94598.66;5094173;28;20200;-59
2022/06/14 11:41:45;;;;;;;6.50;3.03;;;;;;;19.40;100.00;94598.72;5094464;28;20274;-59
2022/06/14 11:44:32;;;;;;;5.63;2.95;;;;;;;19.57;100.00;94587.97;5092895;28;20172;-59
2022/06/14 11:47:15;;;;;;;3.38;2.72;;;;;;;19.86;100.00;94595.53;5093922;28;20176;-64
2022/06/14 11:49:50;;;;;;;3.72;2.53;;;;;;;20.06;100.00;94639.53;5093778;28;20215;-63
2022/06/14 11:52:37;;;;;;;3.03;2.40;;;;;;;20.28;100.00;94612.72;5093834;28;20156;-64
2022/06/14 11:55:25;;;;;;;5.82;3.25;;;;;;;20.66;100.00;94663.03;5093476;28;20208;-61
2022/06/14 11:58:06;;;;;;;5.82;2.78;;;;;;;20.94;100.00;94619.00;5093923;28;20257;-61
2022/06/14 12:00:46;;;;;;;7.90;2.60;;;;;;;21.30;100.00;94693.72;5093621;28;20742;-61
2022/06/14 12:03:45;;;;;;;2.95;2.25;;;;;;;21.27;100.00;94681.19;5093492;28;20176;-63
2022/06/14 12:06:47;;;;;;;8.60;2.13;;;;;;;21.25;100.00;94715.00;5093788;28;20257;-60
2022/06/14 12:09:42;;;;;;;5.70;2.20;;;;;;;21.82;100.00;94685.31;5101400;22;20183;-60
2022/06/14 12:12:32;;;;;;;4.65;1.80;;;;;;;21.88;100.00;94694.88;5071940;28;20207;-61
2022/06/14 12:15:50;;;;;;;3.17;2.00;;;;;;;22.04;100.00;94666.03;5073527;28;20215;-59
2022/06/14 12:18:19;;;;;;;6.45;2.67;;;;;;;21.77;100.00;94595.31;5036083;28;20207;-59
2022/06/14 12:20:57;;;;;;;7.45;3.78;;;;;;;21.53;100.00;94588.91;5073110;28;20204;-60
2022/06/14 12:23:34;;;;;;;4.30;3.22;;;;;;;21.04;100.00;94596.19;5073034;28;20165;-61
2022/06/14 12:26:34;;;;;;;2.72;2.53;;;;;;;20.32;100.00;94675.13;5073106;28;20205;-59
2022/06/14 12:29:35;;;;;;;3.67;2.60;;;;;;;20.21;100.00;94642.06;5073046;28;20268;-59
2022/06/14 12:32:07;;;;;;;5.05;2.22;;;;;;;20.10;100.00;94682.88;5051064;28;20195;-63